createdAt,value
2023-10-29T00:04:36.904Z,99118.38
2023-10-29T00:09:37.817Z,99116.53
2023-10-29T00:14:38.638Z,99117.03
2023-10-29T00:19:40.919Z,99100.34
2023-10-29T00:24:41.718Z,99090.69
2023-10-29T00:29:42.878Z,99096.59
2023-10-29T00:34:45.148Z,99096.59
2023-10-29T00:39:46.348Z,99084.34
2023-10-29T00:44:48.340Z,99082.50
2023-10-29T00:49:50.924Z,99076.38
2023-10-29T00:54:51.839Z,99076.22
2023-10-29T00:59:53.321Z,99080.28
2023-10-29T01:04:55.589Z,99087.19
2023-10-29T01:09:56.818Z,99086.94
2023-10-29T01:14:57.697Z,99085.03
2023-10-29T01:20:00.992Z,99077.03
2023-10-29T01:25:03.806Z,99062.28
2023-10-29T01:30:05.570Z,99072.41
2023-10-29T01:35:08.471Z,99067.94
2023-10-29T01:40:10.175Z,99067.03
2023-10-29T01:45:12.865Z,99062.34
2023-10-29T01:50:16.056Z,99063.72
2023-10-29T01:55:17.012Z,99067.63
2023-10-29T02:00:19.213Z,99058.72
2023-10-29T02:05:21.421Z,99063.16
2023-10-29T02:10:23.172Z,99051.75
2023-10-29T02:15:23.956Z,99055.28
2023-10-29T02:20:26.118Z,99048.69
2023-10-29T02:25:28.376Z,99052.84
2023-10-29T02:30:29.229Z,99047.56
2023-10-29T02:35:30.078Z,99044.84
2023-10-29T02:40:32.252Z,99048.38
2023-10-29T02:45:34.077Z,99041.44
2023-10-29T02:50:34.936Z,99041.31
2023-10-29T02:55:37.131Z,99042.22
2023-10-29T03:00:37.931Z,99037.97
2023-10-29T03:05:50.533Z,99035.31
2023-10-29T03:10:58.624Z,99037.34
2023-10-29T03:15:59.470Z,99031.63
2023-10-29T03:21:00.424Z,99047.00
2023-10-29T03:26:05.566Z,99028.59
2023-10-29T03:31:12.785Z,99031.97
2023-10-29T03:36:14.077Z,99030.94
2023-10-29T03:41:23.376Z,99026.34
2023-10-29T03:46:24.273Z,99020.09
2023-10-29T03:51:26.544Z,99022.63
2023-10-29T03:56:28.790Z,99022.06
2023-10-29T04:01:29.643Z,99006.41
2023-10-29T04:06:30.504Z,99012.03
2023-10-29T04:11:32.725Z,98999.56
2023-10-29T04:16:34.462Z,98996.28
2023-10-29T04:21:35.382Z,99000.31
2023-10-29T04:26:37.517Z,98989.91
2023-10-29T04:31:38.342Z,98996.97
2023-10-29T04:36:40.336Z,98998.50
2023-10-29T04:41:42.596Z,98993.31
2023-10-29T04:46:43.394Z,98988.91
2023-10-29T04:51:44.201Z,98983.28
2023-10-29T04:56:46.374Z,98965.91
2023-10-29T05:01:47.326Z,98955.81
2023-10-29T05:06:48.117Z,98946.75
2023-10-29T05:11:50.399Z,98946.47
2023-10-29T05:16:51.238Z,98939.63
2023-10-29T05:21:52.117Z,98943.78
2023-10-29T05:26:54.311Z,98941.56
2023-10-29T05:31:55.307Z,98930.75
2023-10-29T05:36:56.082Z,98915.72
2023-10-29T05:41:58.229Z,98912.88
2023-10-29T05:46:59.063Z,98915.81
2023-10-29T05:51:59.836Z,98914.34
2023-10-29T05:57:01.957Z,98925.91
2023-10-29T06:02:02.787Z,98922.13
2023-10-29T06:07:03.593Z,98920.97
2023-10-29T06:12:06.620Z,98910.44
2023-10-29T06:17:23.337Z,98910.13
2023-10-29T06:22:27.317Z,98911.19
2023-10-29T06:27:29.429Z,98902.03
2023-10-29T06:32:30.240Z,98902.03
2023-10-29T06:37:31.216Z,98887.97
2023-10-29T06:42:33.348Z,98878.47
2023-10-29T06:47:34.384Z,98894.94
2023-10-29T06:52:35.229Z,98898.59
2023-10-29T06:57:37.602Z,98907.44
2023-10-29T07:02:38.657Z,98913.91
2023-10-29T07:07:39.738Z,98883.97
2023-10-29T07:12:42.327Z,98905.75
2023-10-29T07:17:44.785Z,98896.97
2023-10-29T07:22:45.656Z,98906.94
2023-10-29T07:27:51.010Z,98905.00
2023-10-29T07:32:52.232Z,98906.84
2023-10-29T07:37:53.055Z,98900.69
2023-10-29T07:42:55.163Z,98895.03
2023-10-29T07:47:56.016Z,98905.16
2023-10-29T07:52:57.595Z,98897.91
2023-10-29T07:57:59.752Z,98901.53
2023-10-29T08:03:00.619Z,98907.38
2023-10-29T08:08:02.601Z,98905.44
2023-10-29T08:13:06.994Z,98911.00
2023-10-29T08:18:08.244Z,98911.38
2023-10-29T08:23:09.368Z,98915.06
2023-10-29T08:28:11.497Z,98935.25
2023-10-29T08:33:12.319Z,98944.00
2023-10-29T08:38:13.243Z,98935.13
2023-10-29T08:43:15.395Z,98942.00
2023-10-29T08:48:17.475Z,98938.16
2023-10-29T08:53:18.308Z,98942.41
2023-10-29T08:58:21.927Z,98930.81
2023-10-29T09:03:22.885Z,98920.97
2023-10-29T09:08:23.750Z,98918.28
2023-10-29T09:13:25.874Z,98915.16
2023-10-29T09:18:26.860Z,98911.47
2023-10-29T09:23:28.445Z,98900.78
2023-10-29T09:28:30.633Z,98895.44
2023-10-29T09:33:31.461Z,98888.44
2023-10-29T09:38:32.259Z,98893.81
2023-10-29T09:43:42.452Z,98896.97
2023-10-29T09:48:45.588Z,98902.41
2023-10-29T09:53:47.593Z,98903.19
2023-10-29T09:58:49.843Z,98910.22
2023-10-29T10:03:50.805Z,98915.47
2023-10-29T10:08:58.879Z,98925.84
2023-10-29T10:14:01.087Z,98933.19
2023-10-29T10:19:02.468Z,98929.19
2023-10-29T10:24:03.413Z,98939.47
2023-10-29T10:29:07.399Z,98964.34
2023-10-29T10:34:12.615Z,98954.38
2023-10-29T10:39:13.963Z,98949.28
2023-10-29T10:44:17.182Z,98935.06
2023-10-29T10:49:19.103Z,98940.22
2023-10-29T10:54:20.455Z,98941.16
2023-10-29T10:59:23.205Z,98948.38
2023-10-29T11:04:27.661Z,98938.72
2023-10-29T11:09:29.840Z,98932.31
2023-10-29T11:14:32.035Z,98915.75
2023-10-29T11:19:47.325Z,98908.22
2023-10-29T11:25:40.566Z,98893.41
2023-10-29T11:30:42.849Z,98900.75
2023-10-29T11:35:44.517Z,98892.56
2023-10-29T11:40:47.333Z,98903.31
2023-10-29T11:45:57.611Z,98894.31
2023-10-29T11:51:20.660Z,98888.00
2023-10-29T11:56:32.559Z,98889.81
2023-10-29T12:01:34.868Z,98884.59
2023-10-29T12:06:40.289Z,98881.13
2023-10-29T12:11:41.332Z,98887.13
2023-10-29T12:16:44.006Z,98875.50
2023-10-29T12:21:53.044Z,98870.84
2023-10-29T12:26:54.173Z,98888.53
2023-10-29T12:31:56.361Z,98895.22
2023-10-29T12:36:57.927Z,98892.22
2023-10-29T12:41:59.093Z,98890.25
2023-10-29T12:47:01.623Z,98882.22
2023-10-29T12:52:03.722Z,98879.09
2023-10-29T12:57:13.150Z,98868.13
2023-10-29T13:02:24.552Z,98872.94
2023-10-29T13:07:25.658Z,98868.41
2023-10-29T13:12:29.181Z,98879.13
2023-10-29T13:17:31.743Z,98880.41
2023-10-29T13:22:32.742Z,98888.56
2023-10-29T13:27:33.590Z,98895.31
2023-10-29T13:32:36.207Z,98893.63
2023-10-29T13:37:38.466Z,98895.22
2023-10-29T13:42:39.730Z,98896.25
2023-10-29T13:47:42.040Z,98887.53
2023-10-29T13:52:43.121Z,98882.56
2023-10-29T13:57:44.017Z,98893.91
2023-10-29T14:02:46.350Z,98894.28
2023-10-29T14:07:47.317Z,98907.75
2023-10-29T14:12:48.193Z,98917.56
2023-10-29T14:17:54.486Z,98897.41
2023-10-29T14:22:55.567Z,98873.16
2023-10-29T14:27:56.658Z,98870.16
2023-10-29T14:32:58.797Z,98870.66
2023-10-29T14:37:59.658Z,98874.31
2023-10-29T14:43:20.292Z,98863.00
2023-10-29T14:48:22.691Z,98867.47
2023-10-29T14:53:25.506Z,98860.16
2023-10-29T14:58:26.406Z,98848.56
2023-10-29T15:03:28.934Z,98849.03
2023-10-29T15:08:29.882Z,98828.88
2023-10-29T15:13:30.769Z,98822.44
2023-10-29T15:18:33.141Z,98826.63
2023-10-29T15:23:33.992Z,98821.50
2023-10-29T15:28:34.815Z,98823.81
2023-10-29T15:33:36.971Z,98813.50
2023-10-29T15:38:38.444Z,98801.22
2023-10-29T15:43:41.569Z,98800.59
2023-10-29T15:48:43.703Z,98808.44
2023-10-29T15:53:45.753Z,98806.59
2023-10-29T15:58:47.017Z,98809.41
2023-10-29T16:03:49.658Z,98824.56
2023-10-29T16:08:50.473Z,98815.78
2023-10-29T16:13:51.341Z,98807.28
2023-10-29T16:18:54.096Z,98820.53
2023-10-29T16:23:54.951Z,98823.56
2023-10-29T16:28:55.771Z,98840.03
2023-10-29T16:33:58.053Z,98826.28
2023-10-29T16:38:58.942Z,98823.31
2023-10-29T16:44:02.207Z,98823.38
2023-10-29T16:49:04.711Z,98821.84
2023-10-29T16:54:06.387Z,98802.03
2023-10-29T16:59:07.335Z,98808.84
2023-10-29T17:04:09.505Z,98806.44
2023-10-29T17:09:10.355Z,98813.22
2023-10-29T17:14:15.459Z,98822.47
2023-10-29T17:19:17.614Z,98832.19
2023-10-29T17:24:18.499Z,98837.34
2023-10-29T17:29:19.368Z,98840.56
2023-10-29T17:34:21.495Z,98846.00
2023-10-29T17:39:26.037Z,98838.34
2023-10-29T17:44:26.947Z,98838.81
2023-10-29T17:49:29.110Z,98835.44
2023-10-29T17:54:30.095Z,98832.47
2023-10-29T17:59:31.335Z,98838.13
2023-10-29T18:04:33.487Z,98846.63
2023-10-29T18:09:34.356Z,98854.69
2023-10-29T18:14:35.934Z,98852.22
2023-10-29T18:19:38.221Z,98849.44
2023-10-29T18:24:39.037Z,98845.38
2023-10-29T18:29:39.930Z,98838.16
2023-10-29T18:34:43.600Z,98836.38
2023-10-29T18:39:44.420Z,98835.06
2023-10-29T18:44:45.250Z,98824.78
2023-10-29T18:49:47.569Z,98831.72
2023-10-29T18:54:48.670Z,98840.75
2023-10-29T18:59:49.578Z,98845.84
2023-10-29T19:04:51.965Z,98849.38
2023-10-29T19:09:52.855Z,98865.94
2023-10-29T19:14:53.765Z,98882.59
2023-10-29T19:19:56.006Z,98912.38
2023-10-29T19:24:57.063Z,98954.28
2023-10-29T19:29:57.942Z,98989.56
2023-10-29T19:35:00.929Z,98996.91
2023-10-29T19:40:03.943Z,99002.16
2023-10-29T19:45:05.062Z,99017.78
2023-10-29T19:50:08.876Z,99021.22
2023-10-29T19:55:14.356Z,99024.09
2023-10-29T20:00:18.632Z,99040.41
2023-10-29T20:05:20.873Z,99033.31
2023-10-29T20:10:22.121Z,99051.13
2023-10-29T20:15:26.387Z,99069.94
2023-10-29T20:20:29.462Z,99073.31
2023-10-29T20:25:30.549Z,99093.16
2023-10-29T20:30:31.569Z,99113.31
2023-10-29T20:35:34.372Z,99113.94
2023-10-29T20:40:35.204Z,99095.84
2023-10-29T20:45:36.977Z,99101.94
2023-10-29T20:50:39.379Z,99110.53
2023-10-29T20:55:41.521Z,99100.53
2023-10-29T21:00:44.263Z,99119.66
2023-10-29T21:05:47.478Z,99118.38
2023-10-29T21:10:48.357Z,99118.38
2023-10-29T21:15:49.342Z,99094.50
2023-10-29T21:20:51.591Z,99096.66
2023-10-29T21:25:55.619Z,99108.78
2023-10-29T21:30:56.473Z,99129.72
2023-10-29T21:35:58.650Z,99137.31
2023-10-29T21:41:04.264Z,99128.53
2023-10-29T21:46:06.468Z,99124.28
2023-10-29T21:51:08.738Z,99112.13
2023-10-29T21:56:10.063Z,99107.94
2023-10-29T22:01:12.820Z,99097.22
2023-10-29T22:06:15.106Z,99092.72
2023-10-29T22:11:15.978Z,99092.44
2023-10-29T22:16:16.889Z,99096.47
2023-10-29T22:21:19.057Z,99093.53
2023-10-29T22:26:19.816Z,99089.22
2023-10-29T22:31:20.608Z,99089.66
2023-10-29T22:36:22.857Z,99088.09
2023-10-29T22:41:23.846Z,99085.56
2023-10-29T22:46:25.035Z,99085.00
2023-10-29T22:51:27.276Z,99083.31
2023-10-29T22:56:28.104Z,99075.06
2023-10-29T23:01:29.083Z,99061.94
2023-10-29T23:06:31.262Z,99070.78
2023-10-29T23:11:32.075Z,99093.59
2023-10-29T23:16:32.905Z,99090.84
2023-10-29T23:21:35.047Z,99105.03
2023-10-29T23:26:35.897Z,99104.94
2023-10-29T23:31:36.855Z,99109.28
2023-10-29T23:36:39.060Z,99107.63
2023-10-29T23:41:39.884Z,99110.81
2023-10-29T23:46:40.692Z,99117.59
2023-10-29T23:51:42.942Z,99105.00
2023-10-29T23:56:43.762Z,99103.31
